Terminal Aerodrome Forecast
Issued by NWS

Home | Current Version | Previous Version | Text Only | Print | Product List | Glossary On
Versions: 1 2 3 4 5 6 7 8 9 10 11 12 13 14 15 16 17 18 19 20 21
690
FTUS46 KSTO 201228 AAA
TAFSAC
TAF AMD
KSAC 201228Z 2012/2112 15022G32KT P6SM -RA SCT015 OVC040
      TEMPO 2013/2014 2SM +TSRA OVC015CB
     FM201500 22015G22KT P6SM -SHRA BKN030
     FM210200 22013KT P6SM -SHRA BKN050=

USA.gov is the U.S. government's official web portal to all federal, state and local government web resources and services.